Time;durP1;ratioP1;P1;durP2;ratioP2;P2;SDS_P1;SDS_P2;PMS_P1;PMS_P2;Temp;Humidity;BMP_temperature;BMP_pressure;BME280_temperature;BME280_humidity;BME280_pressure;Samples;Min_cycle;Max_cycle;Signal;HPM_P1;HPM_P2
2021/04/03 00:00:30;;;;;;;13.00;5.18;;;;;;;;;;5115365;28;20710;-63
2021/04/03 00:02:57;;;;;;;11.63;4.72;;;;;;;;;;5115209;28;20284;-63
2021/04/03 00:05:25;;;;;;;10.68;3.65;;;;;;;;;;5115200;28;20729;-63
2021/04/03 00:07:52;;;;;;;8.23;3.75;;;;;;;;;;5115438;28;20308;-63
2021/04/03 00:10:21;;;;;;;10.23;3.80;;;;;;;;;;5115711;28;20228;-63
2021/04/03 00:12:48;;;;;;;15.43;4.00;;;;;;;;;;5115075;28;20249;-63
2021/04/03 00:15:15;;;;;;;16.83;4.05;;;;;;;;;;5115205;28;20259;-63
2021/04/03 00:17:42;;;;;;;10.68;3.25;;;;;;;;;;5115313;28;20188;-63
2021/04/03 00:20:10;;;;;;;7.30;3.45;;;;;;;;;;5115227;28;20242;-63
2021/04/03 00:22:36;;;;;;;6.00;2.75;;;;;;;;;;5115368;28;20626;-64
2021/04/03 00:25:05;;;;;;;10.80;4.32;;;;;;;;;;5115004;28;20616;-63
2021/04/03 00:27:32;;;;;;;7.10;3.95;;;;;;;;;;5115425;28;20276;-63
2021/04/03 00:29:59;;;;;;;8.07;2.95;;;;;;;;;;5115020;28;20198;-63
2021/04/03 00:32:26;;;;;;;21.50;4.25;;;;;;;;;;5114581;28;20311;-63
2021/04/03 00:34:52;;;;;;;11.85;3.42;;;;;;;;;;5115428;28;20234;-63
2021/04/03 00:37:19;;;;;;;16.77;4.15;;;;;;;;;;5114858;28;20664;-63
2021/04/03 00:39:46;;;;;;;14.00;5.45;;;;;;;;;;5114535;28;20262;-64
2021/04/03 00:42:15;;;;;;;14.10;3.80;;;;;;;;;;5114819;28;20233;-63
2021/04/03 00:44:44;;;;;;;17.55;4.03;;;;;;;;;;5114869;28;20276;-64
2021/04/03 00:47:11;;;;;;;15.38;5.28;;;;;;;;;;5114546;28;20725;-63
2021/04/03 00:49:37;;;;;;;12.90;3.40;;;;;;;;;;5114703;28;20194;-64
2021/04/03 00:52:05;;;;;;;12.80;4.03;;;;;;;;;;5114757;28;20228;-63
2021/04/03 00:54:32;;;;;;;18.67;4.75;;;;;;;;;;5114342;28;20233;-63
2021/04/03 00:56:59;;;;;;;15.32;4.60;;;;;;;;;;5114745;28;20262;-64
2021/04/03 00:59:26;;;;;;;15.75;3.47;;;;;;;;;;5114265;28;20237;-63
2021/04/03 01:01:53;;;;;;;12.13;4.05;;;;;;;;;;5114162;28;20293;-64
2021/04/03 01:04:20;;;;;;;11.80;3.47;;;;;;;;;;5114517;28;20193;-64
2021/04/03 01:06:46;;;;;;;12.20;4.00;;;;;;;;;;5113975;28;20759;-63
2021/04/03 01:09:13;;;;;;;22.38;4.72;;;;;;;;;;5114727;28;20644;-64
2021/04/03 01:11:42;;;;;;;15.50;4.13;;;;;;;;;;5114336;28;20284;-63
2021/04/03 01:14:12;;;;;;;14.93;3.92;;;;;;;;;;5114213;28;20254;-64
2021/04/03 01:16:41;;;;;;;15.68;3.47;;;;;;;;;;5114243;28;20256;-63
2021/04/03 01:19:22;;;;;;;8.05;3.10;;;;;;;;;;5114282;28;20327;-63
2021/04/03 01:22:01;;;;;;;18.02;3.95;;;;;;;;;;5112807;28;20196;-64
2021/04/03 01:24:36;;;;;;;11.80;3.90;;;;;;;;;;5113906;28;20275;-63
2021/04/03 01:27:09;;;;;;;15.20;3.28;;;;;;;;;;5114064;28;20277;-63
2021/04/03 01:30:01;;;;;;;14.75;3.20;;;;;;;;;;5113908;28;20186;-64
2021/04/03 01:32:32;;;;;;;10.27;3.13;;;;;;;;;;5114685;28;20565;-63
2021/04/03 01:35:00;;;;;;;14.40;4.22;;;;;;;;;;5114222;28;20272;-63
2021/04/03 01:37:27;;;;;;;9.27;3.10;;;;;;;;;;5112872;28;20758;-63
2021/04/03 01:39:55;;;;;;;16.45;4.05;;;;;;;;;;5114071;28;20281;-63
2021/04/03 01:42:27;;;;;;;10.00;3.42;;;;;;;;;;5114380;28;20220;-63
2021/04/03 01:44:55;;;;;;;11.57;3.75;;;;;;;;;;5113700;28;20272;-63
2021/04/03 01:47:24;;;;;;;12.90;3.90;;;;;;;;;;5113883;28;20301;-63
2021/04/03 01:49:51;;;;;;;13.75;3.30;;;;;;;;;;5113557;28;20284;-64
2021/04/03 01:52:22;;;;;;;11.18;4.22;;;;;;;;;;5113937;28;20343;-63
2021/04/03 01:54:49;;;;;;;21.02;4.13;;;;;;;;;;5114221;28;20277;-63
2021/04/03 01:57:16;;;;;;;15.30;3.40;;;;;;;;;;5113672;28;20288;-63
2021/04/03 01:59:43;;;;;;;11.07;3.47;;;;;;;;;;5113881;28;20288;-63
2021/04/03 02:02:10;;;;;;;11.43;3.10;;;;;;;;;;5113778;28;20233;-63
2021/04/03 02:04:39;;;;;;;16.35;4.13;;;;;;;;;;5113479;28;20291;-63
2021/04/03 02:07:06;;;;;;;11.50;4.13;;;;;;;;;;5113504;28;20236;-63
2021/04/03 02:09:33;;;;;;;17.85;4.03;;;;;;;;;;5113372;28;20284;-64
2021/04/03 02:12:00;;;;;;;10.00;3.50;;;;;;;;;;5113327;28;20209;-63
2021/04/03 02:14:26;;;;;;;11.23;3.88;;;;;;;;;;5113667;28;20288;-63
2021/04/03 02:16:54;;;;;;;20.25;3.55;;;;;;;;;;5113361;28;20193;-64
2021/04/03 02:19:21;;;;;;;15.52;3.53;;;;;;;;;;5113663;28;20624;-64
2021/04/03 02:21:49;;;;;;;16.15;3.03;;;;;;;;;;5113285;28;20651;-63
2021/04/03 02:24:16;;;;;;;18.17;3.92;;;;;;;;;;5113506;28;20291;-63
2021/04/03 02:26:43;;;;;;;19.50;3.70;;;;;;;;;;5113484;28;20240;-63
2021/04/03 02:29:09;;;;;;;16.45;3.70;;;;;;;;;;5113233;28;20229;-63
2021/04/03 02:31:36;;;;;;;8.05;3.15;;;;;;;;;;5114106;28;20225;-64
2021/04/03 02:34:04;;;;;;;19.45;3.45;;;;;;;;;;5113430;28;20260;-64
2021/04/03 02:36:30;;;;;;;17.35;3.42;;;;;;;;;;5113105;28;20283;-65
2021/04/03 02:38:58;;;;;;;10.68;3.20;;;;;;;;;;5113851;28;20239;-63
2021/04/03 02:41:28;;;;;;;15.25;3.80;;;;;;;;;;5113496;28;20331;-64
2021/04/03 02:43:56;;;;;;;6.28;3.05;;;;;;;;;;5113335;28;20233;-64
2021/04/03 02:46:24;;;;;;;11.45;3.38;;;;;;;;;;5113592;28;20280;-63
2021/04/03 02:48:54;;;;;;;17.45;4.00;;;;;;;;;;5114952;28;20280;-64
2021/04/03 02:51:22;;;;;;;10.45;3.88;;;;;;;;;;5116793;28;20288;-63
2021/04/03 02:53:50;;;;;;;16.70;5.68;;;;;;;;;;5116649;28;20217;-63
2021/04/03 02:56:17;;;;;;;9.88;4.00;;;;;;;;;;5117063;28;20276;-64
2021/04/03 02:58:45;;;;;;;19.00;3.22;;;;;;;;;;5117444;28;20225;-64
2021/04/03 03:01:12;;;;;;;13.10;5.47;;;;;;;;;;5116518;28;20280;-64
2021/04/03 03:03:40;;;;;;;20.55;4.00;;;;;;;;;;5116774;28;20284;-64
2021/04/03 03:06:07;;;;;;;28.25;5.72;;;;;;;;;;5116957;28;20224;-64
2021/04/03 03:08:35;;;;;;;9.82;3.80;;;;;;;;;;5117244;28;20316;-64
2021/04/03 03:11:03;;;;;;;25.17;5.05;;;;;;;;;;5117273;28;20276;-64
2021/04/03 03:13:32;;;;;;;10.50;3.20;;;;;;;;;;5116251;28;20303;-63
2021/04/03 03:16:01;;;;;;;7.43;3.13;;;;;;;;;;5116537;28;20620;-63
2021/04/03 03:18:28;;;;;;;16.58;4.85;;;;;;;;;;5116495;28;20196;-63
2021/04/03 03:20:56;;;;;;;27.10;4.53;;;;;;;;;;5116466;28;20670;-63
2021/04/03 03:23:23;;;;;;;9.30;3.13;;;;;;;;;;5116433;28;20288;-63
2021/04/03 03:25:49;;;;;;;13.10;3.58;;;;;;;;;;5116336;28;20200;-63
2021/04/03 03:28:16;;;;;;;13.85;3.75;;;;;;;;;;5116836;28;20230;-63
2021/04/03 03:30:44;;;;;;;20.38;4.57;;;;;;;;;;5115930;28;20287;-63
2021/04/03 03:33:11;;;;;;;17.35;4.43;;;;;;;;;;5116177;28;20212;-63
2021/04/03 03:35:38;;;;;;;9.15;3.15;;;;;;;;;;5116454;28;20284;-63
2021/04/03 03:38:04;;;;;;;15.77;3.80;;;;;;;;;;5115719;28;20733;-63
2021/04/03 03:40:32;;;;;;;15.77;3.50;;;;;;;;;;5115721;28;20318;-63
2021/04/03 03:42:58;;;;;;;15.50;5.03;;;;;;;;;;5115719;28;20244;-64
2021/04/03 03:45:25;;;;;;;13.75;4.50;;;;;;;;;;5115653;28;20773;-63
2021/04/03 03:47:54;;;;;;;17.65;4.45;;;;;;;;;;5115616;28;20665;-63
2021/04/03 03:50:21;;;;;;;23.75;5.75;;;;;;;;;;5115561;28;20650;-63
2021/04/03 03:52:48;;;;;;;11.00;3.30;;;;;;;;;;5115416;28;20248;-63
2021/04/03 03:55:15;;;;;;;19.33;4.80;;;;;;;;;;5116182;28;20279;-63
2021/04/03 03:57:42;;;;;;;14.40;4.13;;;;;;;;;;5116140;28;20239;-63
2021/04/03 04:00:09;;;;;;;16.45;4.80;;;;;;;;;;5114569;28;20197;-63
2021/04/03 04:02:36;;;;;;;17.15;5.55;;;;;;;;;;5115609;28;20197;-64
2021/04/03 04:05:04;;;;;;;18.95;4.40;;;;;;;;;;5115827;28;20220;-64
2021/04/03 04:07:34;;;;;;;17.50;4.40;;;;;;;;;;5115424;28;20303;-63
2021/04/03 04:10:01;;;;;;;11.88;5.20;;;;;;;;;;5116041;28;20272;-63
2021/04/03 04:12:31;;;;;;;12.43;4.70;;;;;;;;;;5115392;28;20217;-63
2021/04/03 04:14:58;;;;;;;23.67;5.03;;;;;;;;;;5115336;28;20276;-64
2021/04/03 04:17:24;;;;;;;16.40;4.53;;;;;;;;;;5114985;28;20307;-64
2021/04/03 04:19:51;;;;;;;14.15;4.65;;;;;;;;;;5115300;28;20225;-64
2021/04/03 04:22:19;;;;;;;13.75;4.18;;;;;;;;;;5114994;28;20242;-64
2021/04/03 04:24:46;;;;;;;19.58;5.80;;;;;;;;;;5115253;28;20614;-64
2021/04/03 04:27:12;;;;;;;18.63;4.68;;;;;;;;;;5114846;28;20279;-64
2021/04/03 04:29:39;;;;;;;27.52;4.72;;;;;;;;;;5111574;28;20216;-64
2021/04/03 04:32:06;;;;;;;25.33;6.38;;;;;;;;;;5104325;28;20760;-64
2021/04/03 04:34:33;;;;;;;17.20;4.35;;;;;;;;;;5094055;28;20226;-65
2021/04/03 04:37:00;;;;;;;19.35;5.63;;;;;;;;;;5094294;28;20581;-64
2021/04/03 04:39:27;;;;;;;13.63;5.15;;;;;;;;;;5093782;28;20283;-64
2021/04/03 04:41:54;;;;;;;14.50;4.22;;;;;;;;;;5093961;28;20193;-64
2021/04/03 04:44:21;;;;;;;20.88;5.10;;;;;;;;;;5094093;28;20197;-64
2021/04/03 04:46:48;;;;;;;17.85;4.50;;;;;;;;;;5094053;28;20233;-64
2021/04/03 04:49:14;;;;;;;13.63;4.78;;;;;;;;;;5094522;28;20248;-64
2021/04/03 04:51:41;;;;;;;27.95;6.70;;;;;;;;;;5094060;28;20647;-64
2021/04/03 04:54:08;;;;;;;25.95;6.75;;;;;;;;;;5093668;28;20225;-64
2021/04/03 04:56:35;;;;;;;18.00;4.80;;;;;;;;;;5093664;28;20336;-64
2021/04/03 04:59:02;;;;;;;18.60;4.55;;;;;;;;;;5095881;28;20197;-64
2021/04/03 05:01:29;;;;;;;16.52;4.97;;;;;;;;;;5114295;28;20241;-64
2021/04/03 05:03:56;;;;;;;12.85;5.53;;;;;;;;;;5114229;28;20344;-63
2021/04/03 05:06:22;;;;;;;21.08;6.68;;;;;;;;;;5114409;27;20618;-63
2021/04/03 05:08:49;;;;;;;25.00;5.72;;;;;;;;;;5114465;28;20197;-63
2021/04/03 05:11:16;;;;;;;8.82;4.70;;;;;;;;;;5114504;28;20280;-64
2021/04/03 05:13:43;;;;;;;14.70;5.90;;;;;;;;;;5114457;28;20346;-64
2021/04/03 05:16:10;;;;;;;18.65;5.85;;;;;;;;;;5114746;28;20228;-63
2021/04/03 05:18:37;;;;;;;17.92;5.25;;;;;;;;;;5114882;28;20250;-63
2021/04/03 05:21:04;;;;;;;25.95;6.63;;;;;;;;;;5115692;28;20589;-64
2021/04/03 05:23:31;;;;;;;26.05;5.43;;;;;;;;;;5115727;28;20287;-63
2021/04/03 05:25:57;;;;;;;24.98;6.00;;;;;;;;;;5115711;28;20229;-64
2021/04/03 05:28:25;;;;;;;17.85;6.35;;;;;;;;;;5114720;28;20278;-63
2021/04/03 05:30:52;;;;;;;15.65;5.75;;;;;;;;;;5113660;28;20189;-63
2021/04/03 05:33:19;;;;;;;25.45;7.05;;;;;;;;;;5114146;28;20220;-63
2021/04/03 05:35:46;;;;;;;23.33;6.45;;;;;;;;;;5114721;28;20193;-63
2021/04/03 05:38:13;;;;;;;24.55;6.07;;;;;;;;;;5116489;28;20192;-64
2021/04/03 05:40:39;;;;;;;24.95;6.07;;;;;;;;;;5116659;28;20226;-64
2021/04/03 05:43:06;;;;;;;23.83;6.15;;;;;;;;;;5114008;28;20207;-64
2021/04/03 05:45:36;;;;;;;21.35;7.00;;;;;;;;;;5114776;28;20586;-64
2021/04/03 05:48:05;;;;;;;19.02;6.00;;;;;;;;;;5115148;28;20242;-64
2021/04/03 05:50:32;;;;;;;21.27;7.05;;;;;;;;;;5113648;28;20623;-64
2021/04/03 05:52:59;;;;;;;18.75;6.90;;;;;;;;;;5114097;28;20274;-64
2021/04/03 05:55:26;;;;;;;17.95;6.15;;;;;;;;;;5113839;28;20258;-63
2021/04/03 05:57:53;;;;;;;17.60;6.82;;;;;;;;;;5113854;28;20192;-64
2021/04/03 06:00:20;;;;;;;22.55;7.97;;;;;;;;;;5113405;28;20239;-64
2021/04/03 06:02:47;;;;;;;29.02;7.32;;;;;;;;;;5114362;28;20227;-63
2021/04/03 06:05:15;;;;;;;29.90;7.22;;;;;;;;;;5113645;28;20199;-63
2021/04/03 06:07:41;;;;;;;13.77;5.90;;;;;;;;;;5113543;28;20228;-65
2021/04/03 06:10:09;;;;;;;13.48;5.80;;;;;;;;;;5113265;28;20229;-65
2021/04/03 06:12:43;;;;;;;21.63;5.70;;;;;;;;;;5113291;28;20711;-64
2021/04/03 06:15:14;;;;;;;24.08;6.43;;;;;;;;;;5113638;28;20239;-64
2021/04/03 06:17:41;;;;;;;25.70;6.05;;;;;;;;;;5113476;28;20310;-64
2021/04/03 06:20:08;;;;;;;25.30;6.32;;;;;;;;;;5113756;28;20285;-67
2021/04/03 06:22:43;;;;;;;20.70;6.60;;;;;;;;;;5113273;28;20283;-64
2021/04/03 06:25:10;;;;;;;22.65;6.78;;;;;;;;;;5117143;28;20770;-64
2021/04/03 06:27:37;;;;;;;21.77;7.43;;;;;;;;;;5117475;28;20193;-64
2021/04/03 06:30:13;;;;;;;30.90;8.10;;;;;;;;;;5117275;28;20613;-64
2021/04/03 06:32:42;;;;;;;19.77;6.38;;;;;;;;;;5117418;27;20215;-64
2021/04/03 06:35:09;;;;;;;29.77;7.53;;;;;;;;;;5117637;28;20188;-64
2021/04/03 06:37:36;;;;;;;21.25;10.25;;;;;;;;;;5117694;28;20670;-64
2021/04/03 06:40:05;;;;;;;22.25;6.90;;;;;;;;;;5117322;27;20276;-64
2021/04/03 06:42:48;;;;;;;24.77;7.53;;;;;;;;;;5116884;28;20208;-62
2021/04/03 06:45:25;;;;;;;23.15;5.88;;;;;;;;;;5117336;28;20237;-63
2021/04/03 06:47:52;;;;;;;22.73;6.47;;;;;;;;;;5117446;28;20189;-63
2021/04/03 06:50:20;;;;;;;32.05;8.88;;;;;;;;;;5116527;28;20246;-63
2021/04/03 06:52:47;;;;;;;32.92;7.45;;;;;;;;;;5116871;28;20216;-63
2021/04/03 06:55:16;;;;;;;18.38;8.52;;;;;;;;;;5116677;28;20245;-63
2021/04/03 06:57:43;;;;;;;22.88;8.13;;;;;;;;;;5117025;28;20333;-63
2021/04/03 07:00:10;;;;;;;16.25;6.75;;;;;;;;;;5117296;28;20216;-63
2021/04/03 07:02:41;;;;;;;18.42;8.00;;;;;;;;;;5116605;28;20279;-63
2021/04/03 07:05:10;;;;;;;20.15;6.68;;;;;;;;;;5116428;28;20181;-63
2021/04/03 07:07:37;;;;;;;20.25;7.28;;;;;;;;;;5116539;28;20247;-63
2021/04/03 07:10:04;;;;;;;22.75;7.93;;;;;;;;;;5116446;28;20288;-64
2021/04/03 07:12:33;;;;;;;26.25;8.55;;;;;;;;;;5116193;28;20281;-63
2021/04/03 07:15:02;;;;;;;19.02;7.32;;;;;;;;;;5116605;28;20285;-64
2021/04/03 07:17:30;;;;;;;30.85;8.30;;;;;;;;;;5116271;28;20280;-63
2021/04/03 07:19:57;;;;;;;35.50;7.53;;;;;;;;;;5116617;28;20207;-63
2021/04/03 07:22:24;;;;;;;24.08;6.00;;;;;;;;;;5116406;28;20284;-64
2021/04/03 07:24:52;;;;;;;26.95;8.30;;;;;;;;;;5115822;28;20289;-63
2021/04/03 07:27:20;;;;;;;24.63;8.52;;;;;;;;;;5116098;28;20193;-63
2021/04/03 07:29:50;;;;;;;24.27;6.82;;;;;;;;;;5116362;28;20266;-62
2021/04/03 07:32:30;;;;;;;27.90;7.50;;;;;;;;;;5116306;28;20670;-62
2021/04/03 07:34:57;;;;;;;16.33;6.75;;;;;;;;;;5115388;28;20735;-63
2021/04/03 07:37:33;;;;;;;21.10;7.25;;;;;;;;;;5116142;28;20569;-62
2021/04/03 07:40:00;;;;;;;24.45;7.20;;;;;;;;;;5116687;28;20188;-63
2021/04/03 07:42:34;;;;;;;21.25;6.40;;;;;;;;;;5115823;28;20189;-63
2021/04/03 07:45:01;;;;;;;23.30;7.57;;;;;;;;;;5115705;28;20284;-64
2021/04/03 07:47:28;;;;;;;34.05;8.13;;;;;;;;;;5116123;28;20246;-63
2021/04/03 07:49:55;;;;;;;21.52;6.97;;;;;;;;;;5115575;28;20650;-64
2021/04/03 07:52:52;;;;;;;20.55;7.22;;;;;;;;;;5116067;28;20630;-63
2021/04/03 07:55:33;;;;;;;18.75;6.03;;;;;;;;;;5116088;28;20185;-63
2021/04/03 07:58:24;;;;;;;28.23;8.20;;;;;;;;;;5115491;28;20201;-63
2021/04/03 08:00:52;;;;;;;24.42;7.43;;;;;;;;;;5115957;28;20276;-63
2021/04/03 08:03:22;;;;;;;26.55;8.15;;;;;;;;;;5115789;28;20563;-62
2021/04/03 08:05:50;;;;;;;14.45;8.15;;;;;;;;;;5115353;28;20726;-62
2021/04/03 08:08:19;;;;;;;23.40;7.63;;;;;;;;;;5115693;28;20226;-62
2021/04/03 08:10:47;;;;;;;23.15;6.95;;;;;;;;;;5116105;28;20545;-63
2021/04/03 08:13:17;;;;;;;31.60;11.10;;;;;;;;;;5115773;28;20748;-63
2021/04/03 08:15:44;;;;;;;24.75;8.45;;;;;;;;;;5115452;28;20204;-62
2021/04/03 08:18:11;;;;;;;24.25;8.55;;;;;;;;;;5115438;28;20251;-63
2021/04/03 08:20:38;;;;;;;26.65;9.27;;;;;;;;;;5115060;28;20654;-63
2021/04/03 08:23:06;;;;;;;23.83;7.32;;;;;;;;;;5115674;28;20225;-64
2021/04/03 08:25:33;;;;;;;19.00;7.03;;;;;;;;;;5114890;28;20661;-64
2021/04/03 08:28:00;;;;;;;21.00;8.45;;;;;;;;;;5115725;28;20557;-63
2021/04/03 08:30:31;;;;;;;42.40;9.05;;;;;;;;;;5115637;28;20238;-63
2021/04/03 08:33:10;;;;;;;19.40;8.02;;;;;;;;;;5115094;28;20217;-63
2021/04/03 08:35:40;;;;;;;22.83;9.10;;;;;;;;;;5114928;28;20231;-63
2021/04/03 08:38:07;;;;;;;22.83;7.57;;;;;;;;;;5115144;27;20228;-64
2021/04/03 08:40:34;;;;;;;35.35;9.05;;;;;;;;;;5114535;28;20261;-63
2021/04/03 08:43:01;;;;;;;18.60;7.60;;;;;;;;;;5114966;28;20280;-63
2021/04/03 08:45:33;;;;;;;21.70;7.05;;;;;;;;;;5114870;28;20639;-64
2021/04/03 08:48:00;;;;;;;19.08;7.30;;;;;;;;;;5115418;28;20181;-64
2021/04/03 08:50:27;;;;;;;24.50;7.97;;;;;;;;;;5114747;28;20292;-63
2021/04/03 08:52:59;;;;;;;23.73;8.70;;;;;;;;;;5114675;28;20304;-66
2021/04/03 08:55:26;;;;;;;21.67;9.07;;;;;;;;;;5115401;28;20283;-67
2021/04/03 08:57:53;;;;;;;20.08;8.93;;;;;;;;;;5114525;28;20283;-67
2021/04/03 09:00:20;;;;;;;27.15;8.10;;;;;;;;;;5114621;28;20285;-65
2021/04/03 09:02:47;;;;;;;33.17;7.63;;;;;;;;;;5114184;28;20332;-65
2021/04/03 09:05:15;;;;;;;22.73;8.15;;;;;;;;;;5114517;28;20322;-65
2021/04/03 09:07:41;;;;;;;26.83;8.55;;;;;;;;;;5107473;28;20253;-65
2021/04/03 09:10:10;;;;;;;27.98;8.40;;;;;;;;;;5100644;28;20281;-65
2021/04/03 09:12:37;;;;;;;26.50;7.95;;;;;;;;;;5093604;28;20221;-65
2021/04/03 09:15:06;;;;;;;21.52;8.27;;;;;;;;;;5093842;28;20243;-66
2021/04/03 09:17:33;;;;;;;23.60;7.32;;;;;;;;;;5093802;28;20564;-66
2021/04/03 09:20:07;;;;;;;20.42;7.57;;;;;;;;;;5093341;28;20281;-66
2021/04/03 09:22:37;;;;;;;27.85;8.23;;;;;;;;;;5093882;28;20226;-66
2021/04/03 09:25:08;;;;;;;32.75;9.45;;;;;;;;;;5093565;28;20229;-66
2021/04/03 09:27:35;;;;;;;20.75;8.10;;;;;;;;;;5093603;28;20182;-67
2021/04/03 09:30:05;;;;;;;21.95;7.20;;;;;;;;;;5093633;28;20229;-72
2021/04/03 09:32:41;;;;;;;31.23;7.25;;;;;;;;;;5094851;28;20290;-65
2021/04/03 09:35:09;;;;;;;16.45;7.47;;;;;;;;;;5094016;28;20182;-66
2021/04/03 09:37:36;;;;;;;21.10;7.95;;;;;;;;;;5102743;28;20281;-65
2021/04/03 09:40:05;;;;;;;21.38;7.95;;;;;;;;;;5113873;28;20275;-65
2021/04/03 09:42:31;;;;;;;19.45;6.93;;;;;;;;;;5113864;28;20242;-66
2021/04/03 09:45:00;;;;;;;15.40;6.93;;;;;;;;;;5114003;28;20228;-66
2021/04/03 09:47:27;;;;;;;17.73;6.95;;;;;;;;;;5114483;28;20193;-66
2021/04/03 09:49:54;;;;;;;19.17;7.28;;;;;;;;;;5114017;28;20660;-66
2021/04/03 09:52:21;;;;;;;22.52;8.85;;;;;;;;;;5113998;28;20275;-67
2021/04/03 09:54:48;;;;;;;23.80;7.70;;;;;;;;;;5113384;28;20304;-66
2021/04/03 09:57:15;;;;;;;20.80;8.50;;;;;;;;;;5113902;28;20236;-67
2021/04/03 09:59:43;;;;;;;24.20;10.35;;;;;;;;;;5116608;28;20280;-67
2021/04/03 10:02:11;;;;;;;25.15;7.60;;;;;;;;;;5117879;28;20235;-67
2021/04/03 10:04:38;;;;;;;22.88;7.43;;;;;;;;;;5117966;28;20281;-67
2021/04/03 10:07:05;;;;;;;25.08;9.07;;;;;;;;;;5117090;28;20305;-67
2021/04/03 10:09:32;;;;;;;16.52;7.47;;;;;;;;;;5117509;28;20190;-68
2021/04/03 10:11:59;;;;;;;15.80;6.20;;;;;;;;;;5117435;28;20203;-67
2021/04/03 10:14:26;;;;;;;16.75;7.32;;;;;;;;;;5117504;28;20260;-67
2021/04/03 10:16:53;;;;;;;23.50;8.23;;;;;;;;;;5117691;28;20282;-66
2021/04/03 10:19:21;;;;;;;26.73;8.18;;;;;;;;;;5117482;28;20230;-67
2021/04/03 10:21:47;;;;;;;21.02;7.55;;;;;;;;;;5117367;28;20231;-66
2021/04/03 10:24:14;;;;;;;21.70;7.85;;;;;;;;;;5117202;28;20238;-66
2021/04/03 10:26:41;;;;;;;15.55;6.30;;;;;;;;;;5117197;28;20194;-66
2021/04/03 10:29:08;;;;;;;20.38;7.38;;;;;;;;;;5116953;28;20241;-66
2021/04/03 10:31:35;;;;;;;21.88;8.40;;;;;;;;;;5117864;28;20206;-66
2021/04/03 10:34:01;;;;;;;12.32;6.38;;;;;;;;;;5117237;28;20250;-67
2021/04/03 10:36:29;;;;;;;14.77;6.35;;;;;;;;;;5117083;28;20226;-66
2021/04/03 10:38:56;;;;;;;20.00;7.10;;;;;;;;;;5096757;28;20202;-67
2021/04/03 10:41:22;;;;;;;15.27;7.40;;;;;;;;;;5096355;28;20203;-66
2021/04/03 10:43:49;;;;;;;17.25;7.07;;;;;;;;;;5096398;28;20290;-66
2021/04/03 10:46:21;;;;;;;14.80;7.03;;;;;;;;;;5097119;28;20194;-66
2021/04/03 10:48:48;;;;;;;16.95;7.32;;;;;;;;;;5096406;28;20191;-66
2021/04/03 10:51:14;;;;;;;14.90;7.13;;;;;;;;;;5096806;28;20283;-66
2021/04/03 10:53:42;;;;;;;18.83;7.20;;;;;;;;;;5096474;28;20307;-67
2021/04/03 10:56:09;;;;;;;18.52;7.38;;;;;;;;;;5096421;28;20264;-66
2021/04/03 10:58:36;;;;;;;15.82;8.23;;;;;;;;;;5096160;28;20200;-67
2021/04/03 11:01:03;;;;;;;17.38;7.00;;;;;;;;;;5096207;28;20246;-66
2021/04/03 11:03:29;;;;;;;26.88;8.23;;;;;;;;;;5096025;28;20291;-67
2021/04/03 11:05:56;;;;;;;18.08;7.85;;;;;;;;;;5096005;28;20680;-67
2021/04/03 11:08:23;;;;;;;24.67;8.02;;;;;;;;;;5112162;28;20317;-67
2021/04/03 11:10:51;;;;;;;22.33;8.15;;;;;;;;;;5116044;28;20301;-67
2021/04/03 11:13:17;;;;;;;19.17;9.35;;;;;;;;;;5116421;28;20251;-66
2021/04/03 11:15:46;;;;;;;17.77;9.00;;;;;;;;;;5116503;28;20268;-67
2021/04/03 11:18:12;;;;;;;18.58;8.48;;;;;;;;;;5116373;28;20277;-67
2021/04/03 11:20:39;;;;;;;18.05;7.70;;;;;;;;;;5116187;28;20227;-66
2021/04/03 11:23:06;;;;;;;18.05;7.75;;;;;;;;;;5116731;28;20629;-66
2021/04/03 11:25:33;;;;;;;16.67;8.05;;;;;;;;;;5115971;28;20726;-66
2021/04/03 11:28:01;;;;;;;23.02;9.38;;;;;;;;;;5116249;28;20274;-66
2021/04/03 11:30:28;;;;;;;26.55;8.20;;;;;;;;;;5116274;28;20193;-66
2021/04/03 11:32:55;;;;;;;13.00;5.93;;;;;;;;;;5116139;28;20680;-67
2021/04/03 11:35:24;;;;;;;13.73;5.70;;;;;;;;;;5115647;28;20276;-67
2021/04/03 11:37:51;;;;;;;13.80;6.47;;;;;;;;;;5115489;28;20231;-67
2021/04/03 11:40:18;;;;;;;15.68;6.90;;;;;;;;;;5115451;28;20221;-67
2021/04/03 11:42:47;;;;;;;15.30;8.60;;;;;;;;;;5115882;28;20203;-67
2021/04/03 11:45:16;;;;;;;14.40;7.80;;;;;;;;;;5115675;28;20196;-67
2021/04/03 11:47:42;;;;;;;16.65;8.13;;;;;;;;;;5115904;28;20233;-67
2021/04/03 11:50:10;;;;;;;14.98;7.35;;;;;;;;;;5115498;28;20277;-67
2021/04/03 11:52:37;;;;;;;19.08;8.65;;;;;;;;;;5115515;28;20656;-67
2021/04/03 11:55:06;;;;;;;14.55;6.28;;;;;;;;;;5115578;28;20233;-68
2021/04/03 11:57:33;;;;;;;18.02;6.88;;;;;;;;;;5116252;28;20282;-68
2021/04/03 12:00:00;;;;;;;16.02;7.68;;;;;;;;;;5114904;28;20686;-67
2021/04/03 12:02:27;;;;;;;11.73;5.55;;;;;;;;;;5115311;28;20203;-67
2021/04/03 12:04:55;;;;;;;11.57;6.78;;;;;;;;;;5115753;28;20283;-68
2021/04/03 12:07:21;;;;;;;17.33;6.87;;;;;;;;;;5114854;28;20789;-67
2021/04/03 12:09:48;;;;;;;14.33;6.53;;;;;;;;;;5115206;28;20600;-67
2021/04/03 12:12:15;;;;;;;21.15;6.15;;;;;;;;;;5115857;28;20522;-66
2021/04/03 12:14:41;;;;;;;10.35;5.40;;;;;;;;;;5115685;28;20218;-67
2021/04/03 12:17:08;;;;;;;9.90;6.80;;;;;;;;;;5115282;28;20239;-67
2021/04/03 12:19:36;;;;;;;9.33;4.87;;;;;;;;;;5114981;28;20481;-68
2021/04/03 12:22:03;;;;;;;14.80;7.07;;;;;;;;;;5113986;28;20439;-68
2021/04/03 12:24:30;;;;;;;12.30;5.70;;;;;;;;;;5115135;28;20437;-69
2021/04/03 12:26:57;;;;;;;6.95;4.72;;;;;;;;;;5115513;28;20515;-68
2021/04/03 12:29:24;;;;;;;10.95;5.05;;;;;;;;;;5114900;28;20240;-68
2021/04/03 12:31:50;;;;;;;15.57;6.28;;;;;;;;;;5114903;28;20592;-67
2021/04/03 12:34:17;;;;;;;9.88;5.55;;;;;;;;;;5114717;28;20306;-68
2021/04/03 12:36:45;;;;;;;9.10;5.03;;;;;;;;;;5114688;28;20236;-65
2021/04/03 12:39:11;;;;;;;17.08;5.72;;;;;;;;;;5114043;28;20498;-65
2021/04/03 12:41:38;;;;;;;10.93;4.65;;;;;;;;;;5114389;28;20238;-65
2021/04/03 12:44:05;;;;;;;7.20;4.70;;;;;;;;;;5114833;28;20240;-65
2021/04/03 12:46:32;;;;;;;16.63;5.93;;;;;;;;;;5115305;28;20481;-65
2021/04/03 12:48:59;;;;;;;5.77;4.20;;;;;;;;;;5114834;28;20442;-65
2021/04/03 12:51:25;;;;;;;13.52;5.63;;;;;;;;;;5114735;28;20446;-65
2021/04/03 12:53:53;;;;;;;7.70;4.80;;;;;;;;;;5114822;28;20303;-65
2021/04/03 12:56:20;;;;;;;7.00;4.50;;;;;;;;;;5114475;28;20841;-65
2021/04/03 12:58:46;;;;;;;8.50;4.67;;;;;;;;;;5114033;28;20673;-65
2021/04/03 13:01:13;;;;;;;7.00;4.20;;;;;;;;;;5113962;28;20447;-65
2021/04/03 13:03:40;;;;;;;9.80;4.90;;;;;;;;;;5114364;28;20472;-65
2021/04/03 13:06:07;;;;;;;15.60;5.07;;;;;;;;;;5114215;28;21015;-65
2021/04/03 13:08:34;;;;;;;11.10;4.20;;;;;;;;;;5114341;28;20505;-66
2021/04/03 13:11:02;;;;;;;5.90;4.27;;;;;;;;;;5113923;28;20478;-65
2021/04/03 13:13:28;;;;;;;11.90;4.37;;;;;;;;;;5114236;28;20501;-66
2021/04/03 13:15:55;;;;;;;16.70;6.10;;;;;;;;;;5113783;28;20534;-65
2021/04/03 13:18:22;;;;;;;7.07;5.33;;;;;;;;;;5113595;28;20437;-65
2021/04/03 13:20:49;;;;;;;8.00;4.97;;;;;;;;;;5113910;28;20783;-65
2021/04/03 13:23:15;;;;;;;9.40;4.90;;;;;;;;;;5114063;28;20542;-65
2021/04/03 13:25:42;;;;;;;7.87;4.17;;;;;;;;;;5113816;28;20991;-66
2021/04/03 13:28:10;;;;;;;5.97;3.73;;;;;;;;;;5114082;28;20439;-66
2021/04/03 13:30:37;;;;;;;8.40;4.37;;;;;;;;;;5113748;28;20457;-66
2021/04/03 13:33:03;;;;;;;13.60;4.93;;;;;;;;;;5113549;28;20966;-66
2021/04/03 13:35:30;;;;;;;10.37;3.67;;;;;;;;;;5113651;28;20442;-65
2021/04/03 13:37:57;;;;;;;7.47;4.23;;;;;;;;;;5114002;28;20477;-66
2021/04/03 13:40:23;;;;;;;11.53;4.80;;;;;;;;;;5113920;28;20491;-66
2021/04/03 13:42:50;;;;;;;10.20;4.90;;;;;;;;;;5113562;28;20951;-66
2021/04/03 13:45:18;;;;;;;9.27;4.37;;;;;;;;;;5113740;28;20454;-66
2021/04/03 13:47:45;;;;;;;16.77;4.00;;;;;;;;;;5114238;28;20591;-66
2021/04/03 13:50:12;;;;;;;10.50;5.17;;;;;;;;;;5113756;28;20520;-66
2021/04/03 13:52:39;;;;;;;6.80;3.73;;;;;;;;;;5113753;28;20572;-66
2021/04/03 13:55:06;;;;;;;8.90;5.40;;;;;;;;;;5113113;28;20615;-66
2021/04/03 13:57:33;;;;;;;10.93;4.70;;;;;;;;;;5113651;28;20528;-67
2021/04/03 14:00:00;;;;;;;12.20;5.20;;;;;;;;;;5114146;28;20474;-66
2021/04/03 14:02:27;;;;;;;10.03;4.87;;;;;;;;;;5113418;28;20439;-66
2021/04/03 14:04:54;;;;;;;8.50;4.73;;;;;;;;;;5113507;28;21014;-66
2021/04/03 14:07:21;;;;;;;11.35;6.55;;;;;;;;;;5113261;28;20553;-67
2021/04/03 14:09:47;;;;;;;9.73;4.50;;;;;;;;;;5114744;28;20192;-66
2021/04/03 14:12:14;;;;;;;6.32;5.05;;;;;;;;;;5114039;28;20575;-68
2021/04/03 14:14:41;;;;;;;11.03;5.03;;;;;;;;;;5113209;28;20216;-66
2021/04/03 14:17:08;;;;;;;10.70;4.85;;;;;;;;;;5113550;28;20535;-66
2021/04/03 14:19:35;;;;;;;10.18;4.00;;;;;;;;;;5113573;28;20284;-66
2021/04/03 14:22:02;;;;;;;10.67;5.10;;;;;;;;;;5113373;28;20189;-66
2021/04/03 14:24:29;;;;;;;11.00;5.00;;;;;;;;;;5113054;28;20529;-66
2021/04/03 14:26:56;;;;;;;9.40;3.83;;;;;;;;;;5113342;28;20528;-66
2021/04/03 14:29:22;;;;;;;13.67;5.20;;;;;;;;;;5113015;28;20477;-66
2021/04/03 14:31:49;;;;;;;9.67;4.30;;;;;;;;;;5112717;28;20442;-66
2021/04/03 14:34:16;;;;;;;9.60;4.80;;;;;;;;;;5102864;28;20487;-66